createdAt,value
2022-10-26T00:00:36.537Z,6.51
2022-10-26T00:03:04.931Z,6.47
2022-10-26T00:05:34.638Z,6.47
2022-10-26T00:08:03.209Z,6.55
2022-10-26T00:10:31.845Z,6.53
2022-10-26T00:13:02.265Z,6.45
2022-10-26T00:15:30.901Z,6.49
2022-10-26T00:17:59.462Z,6.55
2022-10-26T00:20:27.677Z,6.58
2022-10-26T00:22:55.929Z,6.58
2022-10-26T00:25:24.304Z,6.57
2022-10-26T00:27:52.706Z,6.49
2022-10-26T00:30:22.529Z,6.48
2022-10-26T00:32:50.818Z,6.39
2022-10-26T00:35:23.307Z,6.33
2022-10-26T00:37:58.026Z,6.19
2022-10-26T00:40:29.679Z,6.27
2022-10-26T00:42:58.345Z,6.23
2022-10-26T00:45:30.196Z,6.21
2022-10-26T00:48:00.137Z,6.20
2022-10-26T00:50:32.336Z,6.16
2022-10-26T00:53:03.548Z,6.11
2022-10-26T00:55:34.446Z,6.12
2022-10-26T00:58:04.148Z,6.12
2022-10-26T01:00:33.991Z,6.11
2022-10-26T01:03:07.046Z,6.11
2022-10-26T01:05:36.872Z,6.06
2022-10-26T01:08:05.459Z,6.05
2022-10-26T01:10:34.599Z,6.09
2022-10-26T01:13:03.548Z,6.06
2022-10-26T01:15:40.100Z,6.12
2022-10-26T01:18:13.316Z,6.16
2022-10-26T01:21:14.144Z,6.15
2022-10-26T01:23:58.409Z,6.23
2022-10-26T01:26:40.768Z,6.30
2022-10-26T01:29:21.668Z,6.33
2022-10-26T01:31:57.098Z,6.40
2022-10-26T01:34:30.609Z,6.39
2022-10-26T01:37:01.740Z,6.45
2022-10-26T01:39:33.627Z,6.43
2022-10-26T01:42:03.347Z,6.44
2022-10-26T01:44:37.188Z,6.47
2022-10-26T01:47:07.248Z,6.44
2022-10-26T01:49:38.008Z,6.48
2022-10-26T01:52:06.595Z,6.55
2022-10-26T01:57:07.669Z,6.51
2022-10-26T01:59:45.968Z,6.62
2022-10-26T02:02:32.358Z,6.59
2022-10-26T02:05:17.578Z,6.60
2022-10-26T02:07:52.869Z,6.48
2022-10-26T02:10:30.298Z,6.53
2022-10-26T02:13:03.480Z,6.52
2022-10-26T02:15:36.055Z,6.55
2022-10-26T02:18:14.238Z,6.54
2022-10-26T02:20:45.787Z,6.59
2022-10-26T02:23:15.335Z,6.56
2022-10-26T02:25:46.946Z,6.62
2022-10-26T02:28:19.368Z,6.65
2022-10-26T02:30:49.199Z,6.61
2022-10-26T02:33:21.977Z,6.60
2022-10-26T02:35:52.975Z,6.66
2022-10-26T02:38:22.365Z,6.65
2022-10-26T02:40:52.258Z,6.72
2022-10-26T02:43:23.295Z,6.57
2022-10-26T02:45:55.128Z,6.56
2022-10-26T02:48:25.459Z,6.64
2022-10-26T02:51:01.125Z,6.68
2022-10-26T02:53:32.757Z,6.68
2022-10-26T02:56:05.888Z,6.79
2022-10-26T02:58:39.908Z,6.84
2022-10-26T03:01:08.855Z,6.81
2022-10-26T03:03:38.772Z,6.76
2022-10-26T03:06:07.475Z,6.66
2022-10-26T03:08:35.807Z,6.74
2022-10-26T03:11:04.155Z,6.68
2022-10-26T03:13:32.354Z,6.61
2022-10-26T03:16:00.543Z,6.62
2022-10-26T03:18:28.835Z,6.70
2022-10-26T03:20:58.463Z,6.72
2022-10-26T03:23:26.722Z,6.68
2022-10-26T03:25:58.162Z,6.72
2022-10-26T03:28:26.341Z,6.73
2022-10-26T03:30:54.506Z,6.83
2022-10-26T03:33:25.676Z,6.93
2022-10-26T03:35:57.932Z,6.97
2022-10-26T03:38:26.573Z,7.00
2022-10-26T03:40:54.712Z,7.07
2022-10-26T03:43:22.932Z,7.05
2022-10-26T03:45:51.322Z,7.07
2022-10-26T03:48:19.632Z,7.18
2022-10-26T03:50:47.800Z,7.17
2022-10-26T03:53:17.472Z,7.29
2022-10-26T03:55:45.882Z,7.33
2022-10-26T03:58:14.197Z,7.23
2022-10-26T04:00:42.573Z,7.25
2022-10-26T04:03:10.822Z,7.29
2022-10-26T04:05:39.083Z,7.22
2022-10-26T04:08:07.413Z,7.24
2022-10-26T04:10:37.027Z,7.29
2022-10-26T04:13:05.313Z,7.35
2022-10-26T04:15:33.513Z,7.33
2022-10-26T04:18:02.972Z,7.33
2022-10-26T04:20:32.373Z,7.34
2022-10-26T04:23:01.514Z,7.30
2022-10-26T04:25:32.757Z,7.28
2022-10-26T04:28:03.455Z,7.30
2022-10-26T04:30:31.996Z,7.38
2022-10-26T04:33:00.261Z,7.38
2022-10-26T04:35:28.941Z,7.34
2022-10-26T04:38:00.089Z,7.36
2022-10-26T04:40:29.403Z,7.40
2022-10-26T04:42:57.615Z,7.37
2022-10-26T04:45:28.834Z,7.44
2022-10-26T04:48:04.782Z,7.37
2022-10-26T04:50:33.243Z,7.44
2022-10-26T04:53:01.437Z,7.39
2022-10-26T04:55:29.549Z,7.44
2022-10-26T04:58:00.357Z,7.43
2022-10-26T05:00:33.133Z,7.47
2022-10-26T05:03:01.634Z,7.41
2022-10-26T05:05:30.310Z,7.43
2022-10-26T05:07:58.865Z,7.47
2022-10-26T05:10:28.024Z,7.50
2022-10-26T05:12:57.233Z,7.51
2022-10-26T05:15:25.843Z,7.46
2022-10-26T05:17:58.633Z,7.50
2022-10-26T05:20:30.233Z,7.56
2022-10-26T05:22:58.636Z,7.55
2022-10-26T05:25:27.203Z,7.57
2022-10-26T05:27:59.298Z,7.61
2022-10-26T05:30:27.897Z,7.66
2022-10-26T05:32:58.017Z,7.71
2022-10-26T05:35:26.683Z,7.69
2022-10-26T05:37:55.254Z,7.68
2022-10-26T05:40:23.654Z,7.67
2022-10-26T05:42:52.458Z,7.77
2022-10-26T05:45:20.967Z,7.77
2022-10-26T05:47:49.485Z,7.66
2022-10-26T05:50:19.543Z,7.82
2022-10-26T05:52:49.043Z,7.90
2022-10-26T05:55:18.981Z,7.88
2022-10-26T05:57:47.945Z,7.91
2022-10-26T06:00:21.043Z,7.94
2022-10-26T06:02:58.432Z,8.01
2022-10-26T06:05:29.893Z,7.94
2022-10-26T06:07:58.626Z,7.95
2022-10-26T06:10:27.933Z,7.99
2022-10-26T06:12:56.657Z,7.96
2022-10-26T06:15:25.681Z,8.03
2022-10-26T06:18:00.855Z,8.03
2022-10-26T06:20:40.336Z,8.05
2022-10-26T06:23:22.338Z,8.07
2022-10-26T06:25:56.423Z,8.10
2022-10-26T06:31:00.896Z,8.31
2022-10-26T06:33:30.840Z,8.24
2022-10-26T06:36:09.183Z,8.33
2022-10-26T06:38:38.583Z,8.35
2022-10-26T06:41:07.375Z,8.31
2022-10-26T06:43:37.054Z,8.42
2022-10-26T06:46:14.994Z,8.47
2022-10-26T06:48:50.028Z,8.40
2022-10-26T06:51:19.893Z,8.51
2022-10-26T06:53:53.413Z,8.53
2022-10-26T06:56:21.687Z,8.62
2022-10-26T06:58:50.821Z,8.69
2022-10-26T07:01:19.961Z,8.90
2022-10-26T07:03:48.266Z,9.04
2022-10-26T07:06:16.952Z,9.18
2022-10-26T07:08:46.511Z,9.12
2022-10-26T07:11:14.737Z,9.29
2022-10-26T07:13:42.926Z,9.35
2022-10-26T07:16:11.166Z,9.41
2022-10-26T07:18:39.386Z,9.47
2022-10-26T07:21:07.745Z,9.50
2022-10-26T07:23:36.026Z,9.53
2022-10-26T07:26:05.632Z,9.53
2022-10-26T07:28:33.805Z,9.47
2022-10-26T07:31:02.042Z,9.49
2022-10-26T07:33:30.232Z,9.55
2022-10-26T07:36:00.340Z,9.80
2022-10-26T07:38:28.671Z,10.45
2022-10-26T07:40:56.819Z,10.67
2022-10-26T07:43:26.551Z,11.05
2022-10-26T07:45:54.740Z,11.26
2022-10-26T07:48:22.960Z,11.44
2022-10-26T07:50:51.256Z,11.51
2022-10-26T07:53:21.933Z,11.85
2022-10-26T07:55:56.214Z,11.98
2022-10-26T07:58:26.620Z,11.92
2022-10-26T08:00:55.465Z,12.10
2022-10-26T08:03:23.906Z,12.10
2022-10-26T08:05:56.171Z,11.60
2022-10-26T08:08:24.694Z,11.60
2022-10-26T08:10:52.971Z,11.84
2022-10-26T08:13:21.237Z,11.99
2022-10-26T08:15:51.102Z,12.18
2022-10-26T08:18:19.453Z,12.45
2022-10-26T08:20:47.691Z,12.38
2022-10-26T08:23:15.816Z,12.32
2022-10-26T08:25:43.961Z,12.57
2022-10-26T08:28:12.192Z,12.46
2022-10-26T08:30:40.393Z,12.24
2022-10-26T08:33:11.305Z,12.27
2022-10-26T08:35:39.504Z,12.33
2022-10-26T08:38:07.685Z,12.53
2022-10-26T08:40:39.292Z,12.48
2022-10-26T08:43:15.273Z,12.61
2022-10-26T08:45:48.053Z,12.75
2022-10-26T08:48:20.123Z,12.74
2022-10-26T08:50:53.127Z,12.79
2022-10-26T08:53:24.097Z,12.91
2022-10-26T08:55:56.313Z,12.91
2022-10-26T08:58:28.885Z,12.99
2022-10-26T09:00:57.201Z,12.99
2022-10-26T09:03:27.164Z,12.82
2022-10-26T09:06:07.023Z,12.64
2022-10-26T09:08:42.774Z,12.43
2022-10-26T09:11:19.147Z,12.33
2022-10-26T09:13:56.447Z,12.25
2022-10-26T09:16:31.646Z,12.24
2022-10-26T09:19:15.753Z,12.13
2022-10-26T09:21:49.142Z,12.23
2022-10-26T09:24:22.215Z,12.40
2022-10-26T09:26:56.060Z,12.26
2022-10-26T09:29:28.083Z,12.09
2022-10-26T09:31:57.584Z,12.14
2022-10-26T09:34:32.396Z,12.09
2022-10-26T09:37:00.664Z,12.22
2022-10-26T09:39:37.565Z,12.37
2022-10-26T09:42:14.184Z,12.87
2022-10-26T09:44:46.893Z,12.87
2022-10-26T09:47:19.296Z,12.91
2022-10-26T09:49:56.066Z,13.01
2022-10-26T09:52:24.317Z,13.31
2022-10-26T09:54:52.572Z,13.42
2022-10-26T09:57:21.872Z,13.41
2022-10-26T09:59:51.345Z,13.56
2022-10-26T10:02:36.578Z,13.44
2022-10-26T10:05:49.778Z,13.44
2022-10-26T10:08:19.323Z,13.46
2022-10-26T10:10:58.716Z,13.59
2022-10-26T10:13:28.656Z,13.73
2022-10-26T10:16:05.170Z,13.39
2022-10-26T10:18:34.042Z,13.46
2022-10-26T10:21:05.790Z,13.50
2022-10-26T10:23:35.412Z,13.39
2022-10-26T10:26:07.063Z,13.44
2022-10-26T10:28:35.804Z,13.37
2022-10-26T10:31:05.840Z,13.66
2022-10-26T10:33:40.037Z,13.73
2022-10-26T10:36:13.173Z,13.73
2022-10-26T10:38:43.983Z,13.87
2022-10-26T10:41:23.712Z,13.86
2022-10-26T10:43:54.223Z,13.94
2022-10-26T10:46:24.446Z,13.98
2022-10-26T10:49:02.915Z,13.69
2022-10-26T10:51:38.169Z,13.64
2022-10-26T10:54:07.556Z,13.73
2022-10-26T10:56:39.293Z,14.02
2022-10-26T10:59:40.216Z,13.70
2022-10-26T11:02:44.067Z,13.91
2022-10-26T11:05:26.273Z,14.08
2022-10-26T11:08:02.535Z,14.12
2022-10-26T11:10:34.692Z,14.37
2022-10-26T11:13:04.925Z,14.14
2022-10-26T11:15:35.201Z,14.16
2022-10-26T11:18:07.684Z,14.06
2022-10-26T11:20:39.484Z,14.10
2022-10-26T11:23:14.491Z,14.19
2022-10-26T11:25:47.671Z,14.13
2022-10-26T11:28:18.342Z,14.13
2022-10-26T11:30:48.748Z,14.07
2022-10-26T11:33:18.869Z,14.14
2022-10-26T11:35:51.462Z,14.36
2022-10-26T11:38:38.793Z,14.34
2022-10-26T11:41:19.105Z,14.52
2022-10-26T11:43:48.806Z,14.42
2022-10-26T11:46:19.761Z,14.09
2022-10-26T11:48:53.351Z,14.41
2022-10-26T11:51:33.319Z,14.50
2022-10-26T11:54:10.890Z,14.36
2022-10-26T11:56:41.487Z,14.21
2022-10-26T11:59:13.524Z,14.40
2022-10-26T12:01:41.811Z,14.25
2022-10-26T12:04:10.485Z,14.14
2022-10-26T12:06:39.003Z,14.28
2022-10-26T12:09:11.773Z,14.27
2022-10-26T12:11:43.011Z,14.47
2022-10-26T12:14:19.694Z,14.51
2022-10-26T12:16:58.632Z,14.41
2022-10-26T12:19:30.134Z,14.22
2022-10-26T12:21:58.743Z,14.30
2022-10-26T12:24:30.231Z,14.29
2022-10-26T12:26:59.700Z,14.21
2022-10-26T12:29:35.922Z,14.01
2022-10-26T12:32:06.011Z,13.91
2022-10-26T12:35:04.946Z,14.23
2022-10-26T12:37:37.956Z,14.33
2022-10-26T12:40:42.785Z,14.50
2022-10-26T12:43:37.253Z,14.65
2022-10-26T12:46:39.396Z,14.59
2022-10-26T12:49:48.490Z,14.63
2022-10-26T12:52:45.944Z,14.66
2022-10-26T12:55:25.056Z,14.70
2022-10-26T12:58:03.786Z,14.86
2022-10-26T13:00:32.698Z,14.68
2022-10-26T13:03:14.513Z,14.93
2022-10-26T13:06:13.193Z,15.05
2022-10-26T13:08:43.297Z,15.07
2022-10-26T13:11:18.082Z,15.14
2022-10-26T13:13:54.872Z,15.18
2022-10-26T13:16:23.296Z,15.05
2022-10-26T13:18:51.603Z,14.81
2022-10-26T13:21:20.884Z,14.59
2022-10-26T13:23:57.775Z,14.62
2022-10-26T13:26:27.461Z,14.51
2022-10-26T13:28:59.485Z,14.45
2022-10-26T13:31:56.194Z,14.33
2022-10-26T13:34:26.486Z,14.60
2022-10-26T13:36:59.902Z,14.43
2022-10-26T13:39:30.756Z,14.33
2022-10-26T13:42:00.612Z,14.25
2022-10-26T13:44:32.326Z,14.14
2022-10-26T13:47:03.876Z,14.13
2022-10-26T13:49:36.186Z,14.21
2022-10-26T13:52:05.613Z,14.23
2022-10-26T13:54:37.578Z,14.21
2022-10-26T13:57:15.472Z,14.13
2022-10-26T13:59:46.515Z,14.09
2022-10-26T14:02:23.706Z,14.04
2022-10-26T14:04:55.281Z,14.01
2022-10-26T14:07:25.762Z,13.92
2022-10-26T14:09:55.365Z,13.98
2022-10-26T14:12:24.142Z,13.94
2022-10-26T14:14:54.254Z,13.86
2022-10-26T14:17:24.178Z,14.00
2022-10-26T14:19:52.635Z,14.02
2022-10-26T14:22:24.162Z,14.10
2022-10-26T14:27:28.803Z,13.91
2022-10-26T14:30:21.160Z,13.92
2022-10-26T14:32:46.563Z,13.77
2022-10-26T14:35:15.218Z,13.90
2022-10-26T14:37:47.273Z,13.75
2022-10-26T14:40:18.137Z,13.69
2022-10-26T14:42:50.529Z,13.71
2022-10-26T14:45:47.667Z,13.89
2022-10-26T14:48:23.178Z,13.95
2022-10-26T14:51:06.353Z,14.03
2022-10-26T14:53:38.035Z,13.98
2022-10-26T14:56:08.133Z,14.15
2022-10-26T14:58:36.493Z,14.32
2022-10-26T15:01:30.350Z,14.44
2022-10-26T15:04:01.984Z,14.31
2022-10-26T15:06:41.268Z,14.47
2022-10-26T15:09:34.165Z,14.56
2022-10-26T15:12:04.184Z,14.39
2022-10-26T15:14:32.435Z,14.35
2022-10-26T15:17:02.512Z,14.17
2022-10-26T15:19:31.051Z,13.99
2022-10-26T15:21:59.375Z,13.76
2022-10-26T15:24:36.104Z,13.65
2022-10-26T15:27:14.081Z,13.52
2022-10-26T15:29:43.911Z,13.26
2022-10-26T15:32:31.156Z,13.07
2022-10-26T15:35:25.304Z,12.87
2022-10-26T15:37:55.204Z,12.79
2022-10-26T15:42:54.035Z,12.57
2022-10-26T15:45:23.927Z,12.45
2022-10-26T15:47:54.693Z,12.37
2022-10-26T15:50:24.264Z,12.32
2022-10-26T15:52:57.712Z,12.28
2022-10-26T15:55:25.872Z,12.15
2022-10-26T15:57:54.312Z,12.09
2022-10-26T16:00:22.834Z,12.04
2022-10-26T16:02:51.012Z,12.04
2022-10-26T16:05:20.571Z,12.07
2022-10-26T16:07:49.366Z,12.03
2022-10-26T16:10:20.572Z,12.05
2022-10-26T16:12:50.418Z,12.05
2022-10-26T16:15:20.352Z,12.08
2022-10-26T16:17:49.150Z,12.13
2022-10-26T16:20:18.737Z,12.13
2022-10-26T16:22:50.759Z,12.11
2022-10-26T16:25:20.700Z,12.08
2022-10-26T16:27:49.631Z,12.14
2022-10-26T16:30:18.478Z,12.15
2022-10-26T16:32:46.699Z,12.12
2022-10-26T16:35:15.665Z,12.13
2022-10-26T16:37:43.856Z,12.12
2022-10-26T16:40:13.934Z,12.13
2022-10-26T16:42:44.103Z,12.08
2022-10-26T16:45:12.792Z,12.07
2022-10-26T16:47:40.994Z,12.08
2022-10-26T16:50:10.413Z,12.07
2022-10-26T16:52:39.192Z,12.04
2022-10-26T16:55:08.622Z,12.02
2022-10-26T16:57:39.249Z,12.02
2022-10-26T17:00:08.622Z,12.03
2022-10-26T17:02:36.878Z,12.01
2022-10-26T17:05:07.454Z,11.99
2022-10-26T17:07:36.171Z,11.95
2022-10-26T17:10:04.532Z,11.96
2022-10-26T17:12:33.115Z,11.96
2022-10-26T17:15:02.814Z,11.98
2022-10-26T17:17:30.902Z,11.98
2022-10-26T17:19:59.639Z,12.01
2022-10-26T17:22:27.936Z,11.97
2022-10-26T17:24:56.124Z,11.97
2022-10-26T17:27:24.363Z,11.94
2022-10-26T17:29:52.663Z,11.92
2022-10-26T17:32:22.487Z,11.94
2022-10-26T17:34:53.539Z,11.92
2022-10-26T17:37:22.180Z,11.90
2022-10-26T17:39:50.450Z,11.91
2022-10-26T17:42:20.060Z,11.92
2022-10-26T17:44:49.062Z,11.90
2022-10-26T17:47:17.749Z,11.87
2022-10-26T17:49:48.650Z,11.90
2022-10-26T17:52:17.130Z,11.89
2022-10-26T17:54:45.579Z,11.83
2022-10-26T17:57:14.777Z,11.87
2022-10-26T17:59:43.590Z,11.85
2022-10-26T18:02:14.135Z,11.87
2022-10-26T18:04:44.251Z,11.88
2022-10-26T18:07:16.278Z,11.88
2022-10-26T18:09:44.567Z,11.92
2022-10-26T18:12:13.482Z,11.83
2022-10-26T18:14:41.860Z,11.84
2022-10-26T18:17:10.161Z,11.86
2022-10-26T18:19:38.409Z,11.85
2022-10-26T18:22:06.709Z,11.82
2022-10-26T18:24:36.370Z,11.80
2022-10-26T18:27:04.700Z,11.81
2022-10-26T18:29:35.058Z,11.83
2022-10-26T18:32:06.267Z,11.78
2022-10-26T18:34:34.529Z,11.75
2022-10-26T18:37:02.740Z,11.78
2022-10-26T18:39:32.499Z,11.75
2022-10-26T18:42:02.299Z,11.71
2022-10-26T18:44:31.479Z,11.74
2022-10-26T18:46:59.751Z,11.74
2022-10-26T18:49:27.981Z,11.73
2022-10-26T18:51:56.091Z,11.78
2022-10-26T18:54:26.247Z,11.73
2022-10-26T18:56:56.493Z,11.76
2022-10-26T18:59:26.010Z,11.75
2022-10-26T19:01:54.630Z,11.73
2022-10-26T19:04:22.951Z,11.71
2022-10-26T19:06:51.041Z,11.70
2022-10-26T19:09:21.052Z,11.68
2022-10-26T19:11:49.183Z,11.68
2022-10-26T19:14:17.364Z,11.65
2022-10-26T19:16:48.018Z,11.64
2022-10-26T19:19:16.738Z,11.62
2022-10-26T19:21:46.401Z,11.61
2022-10-26T19:24:15.950Z,11.62
2022-10-26T19:26:44.831Z,11.61
2022-10-26T19:29:15.591Z,11.60
2022-10-26T19:31:46.682Z,11.51
2022-10-26T19:34:15.947Z,11.58
2022-10-26T19:36:46.374Z,11.61
2022-10-26T19:39:15.414Z,11.61
2022-10-26T19:41:43.884Z,11.58
2022-10-26T19:44:13.185Z,11.58
2022-10-26T19:46:41.372Z,11.58
2022-10-26T19:49:12.604Z,11.57
2022-10-26T19:51:40.850Z,11.58
2022-10-26T19:54:08.921Z,11.53
2022-10-26T19:56:38.139Z,11.49
2022-10-26T19:59:07.381Z,11.41
2022-10-26T20:01:35.706Z,11.34
2022-10-26T20:04:04.375Z,11.25
2022-10-26T20:06:33.906Z,11.11
2022-10-26T20:09:02.598Z,11.02
2022-10-26T20:11:32.498Z,10.91
2022-10-26T20:14:01.001Z,10.85
2022-10-26T20:16:29.090Z,10.78
2022-10-26T20:18:57.144Z,10.65
2022-10-26T20:21:25.350Z,10.65
2022-10-26T20:23:55.301Z,10.60
2022-10-26T20:26:25.205Z,10.54
2022-10-26T20:28:56.393Z,10.53
2022-10-26T20:31:24.571Z,10.50
2022-10-26T20:33:53.361Z,10.49
2022-10-26T20:36:21.648Z,10.51
2022-10-26T20:38:50.430Z,10.46
2022-10-26T20:41:20.714Z,10.47
2022-10-26T20:43:50.575Z,10.41
2022-10-26T20:46:24.572Z,10.38
2022-10-26T20:48:53.761Z,10.34
2022-10-26T20:51:26.364Z,10.32
2022-10-26T20:54:03.354Z,10.25
2022-10-26T20:56:34.491Z,10.22
2022-10-26T20:59:03.692Z,10.20
2022-10-26T21:01:33.241Z,10.15
2022-10-26T21:04:03.082Z,10.02
2022-10-26T21:06:32.541Z,9.91
2022-10-26T21:09:00.671Z,9.88
2022-10-26T21:11:28.794Z,9.80
2022-10-26T21:13:58.285Z,9.78
2022-10-26T21:16:26.644Z,9.72
2022-10-26T21:18:54.691Z,9.61
2022-10-26T21:21:22.751Z,9.65
2022-10-26T21:23:50.863Z,9.60
2022-10-26T21:26:19.071Z,9.48
2022-10-26T21:28:47.199Z,9.50
2022-10-26T21:31:18.234Z,9.44
2022-10-26T21:33:47.581Z,9.39
2022-10-26T21:36:16.222Z,9.42
2022-10-26T21:38:46.181Z,9.42
2022-10-26T21:41:15.440Z,9.34
2022-10-26T21:43:44.804Z,9.25
2022-10-26T21:46:13.383Z,9.20
2022-10-26T21:48:42.911Z,9.18
2022-10-26T21:51:13.219Z,9.13
2022-10-26T21:53:41.332Z,9.08
2022-10-26T21:56:11.369Z,9.05
2022-10-26T21:58:39.859Z,9.01
2022-10-26T22:01:09.082Z,8.93
2022-10-26T22:03:37.891Z,8.93
2022-10-26T22:06:08.633Z,8.86
2022-10-26T22:08:37.230Z,8.85
2022-10-26T22:11:13.032Z,8.71
2022-10-26T22:13:42.693Z,8.77
2022-10-26T22:16:12.123Z,8.66
2022-10-26T22:18:41.673Z,8.62
2022-10-26T22:21:12.181Z,8.55
2022-10-26T22:23:41.830Z,8.58
2022-10-26T22:26:12.104Z,8.63
2022-10-26T22:28:42.840Z,8.62
2022-10-26T22:31:14.640Z,8.61
2022-10-26T22:33:42.810Z,8.60
2022-10-26T22:36:13.834Z,8.65
2022-10-26T22:38:42.513Z,8.63
2022-10-26T22:41:11.674Z,8.64
2022-10-26T22:43:42.873Z,8.64
2022-10-26T22:46:13.280Z,8.64
2022-10-26T22:48:42.531Z,8.55
2022-10-26T22:51:13.641Z,8.49
2022-10-26T22:53:41.910Z,8.44
2022-10-26T22:56:12.387Z,8.36
2022-10-26T22:58:41.441Z,8.34
2022-10-26T23:01:11.089Z,8.34
2022-10-26T23:03:39.579Z,8.30
2022-10-26T23:06:09.369Z,8.21
2022-10-26T23:08:39.213Z,8.17
2022-10-26T23:11:09.482Z,8.07
2022-10-26T23:13:37.878Z,8.11
2022-10-26T23:16:07.129Z,8.10
2022-10-26T23:18:35.491Z,8.18
2022-10-26T23:21:04.404Z,8.20
2022-10-26T23:23:32.831Z,8.16
2022-10-26T23:26:03.292Z,8.14
2022-10-26T23:28:31.484Z,8.19
2022-10-26T23:30:59.554Z,8.12
2022-10-26T23:33:28.052Z,8.03
2022-10-26T23:35:56.311Z,8.05
2022-10-26T23:38:24.514Z,8.05
2022-10-26T23:40:52.918Z,7.92
2022-10-26T23:43:22.763Z,7.84
2022-10-26T23:45:50.971Z,7.90
2022-10-26T23:48:20.590Z,7.92
2022-10-26T23:50:50.524Z,7.91
2022-10-26T23:53:20.070Z,7.97
2022-10-26T23:55:48.862Z,7.95
2022-10-26T23:58:18.303Z,7.84
